sensor_id;sensor_type;location;lat;lon;timestamp;pressure;altitude;pressure_sealevel;temperature;humidity
78625;BME280;67944;0.000;0.000;2023-07-16T00:00:43;100347.59;;;27.98;35.99
78625;BME280;67944;0.000;0.000;2023-07-16T00:03:09;100356.88;;;27.95;35.87
78625;BME280;67944;0.000;0.000;2023-07-16T00:05:36;100358.75;;;27.95;35.69
78625;BME280;67944;0.000;0.000;2023-07-16T00:08:01;100362.25;;;27.95;36.07
78625;BME280;67944;0.000;0.000;2023-07-16T00:10:27;100366.78;;;27.95;36.01
78625;BME280;67944;0.000;0.000;2023-07-16T00:12:52;100361.66;;;27.93;36.13
78625;BME280;67944;0.000;0.000;2023-07-16T00:15:18;100369.69;;;27.93;36.03
78625;BME280;67944;0.000;0.000;2023-07-16T00:17:43;100355.50;;;27.93;35.63
78625;BME280;67944;0.000;0.000;2023-07-16T00:20:09;100379.03;;;27.91;35.91
78625;BME280;67944;0.000;0.000;2023-07-16T00:22:35;100379.03;;;27.91;36.02
78625;BME280;67944;0.000;0.000;2023-07-16T00:25:00;100398.56;;;27.91;35.77
78625;BME280;67944;0.000;0.000;2023-07-16T00:27:26;100429.06;;;27.90;35.98
78625;BME280;67944;0.000;0.000;2023-07-16T00:29:51;100434.66;;;27.89;35.95
78625;BME280;67944;0.000;0.000;2023-07-16T00:32:17;100431.97;;;27.89;35.94
78625;BME280;67944;0.000;0.000;2023-07-16T00:34:42;100423.13;;;27.88;36.09
78625;BME280;67944;0.000;0.000;2023-07-16T00:37:08;100420.44;;;27.88;35.75
78625;BME280;67944;0.000;0.000;2023-07-16T00:39:33;100411.00;;;27.86;36.39
78625;BME280;67944;0.000;0.000;2023-07-16T00:41:58;100399.25;;;27.87;36.30
78625;BME280;67944;0.000;0.000;2023-07-16T00:44:24;100372.72;;;27.85;36.08
78625;BME280;67944;0.000;0.000;2023-07-16T00:46:50;100376.22;;;27.86;35.90
78625;BME280;67944;0.000;0.000;2023-07-16T00:49:16;100383.44;;;27.85;36.07
78625;BME280;67944;0.000;0.000;2023-07-16T00:51:42;100387.97;;;27.85;36.27
78625;BME280;67944;0.000;0.000;2023-07-16T00:54:07;100354.22;;;27.84;36.06
78625;BME280;67944;0.000;0.000;2023-07-16T00:56:33;100371.31;;;27.83;36.20
78625;BME280;67944;0.000;0.000;2023-07-16T00:58:59;100400.75;;;27.83;35.79
78625;BME280;67944;0.000;0.000;2023-07-16T01:01:26;100381.22;;;27.82;36.44
78625;BME280;67944;0.000;0.000;2023-07-16T01:03:51;100377.72;;;27.82;36.18
78625;BME280;67944;0.000;0.000;2023-07-16T01:06:36;100410.88;;;27.81;36.34
78625;BME280;67944;0.000;0.000;2023-07-16T01:09:17;100437.63;;;27.81;36.33
78625;BME280;67944;0.000;0.000;2023-07-16T01:11:44;100448.56;;;27.79;35.87
78625;BME280;67944;0.000;0.000;2023-07-16T01:14:10;100437.88;;;27.79;36.05
78625;BME280;67944;0.000;0.000;2023-07-16T01:16:37;100437.06;;;27.79;35.86
78625;BME280;67944;0.000;0.000;2023-07-16T01:19:03;100442.63;;;27.77;36.11
78625;BME280;67944;0.000;0.000;2023-07-16T01:21:52;100433.78;;;27.77;36.16
78625;BME280;67944;0.000;0.000;2023-07-16T01:29:51;100447.38;;;27.75;36.04
78625;BME280;67944;0.000;0.000;2023-07-16T01:32:20;100452.97;;;27.74;36.49
78625;BME280;67944;0.000;0.000;2023-07-16T01:34:47;100459.94;;;27.75;36.32
78625;BME280;67944;0.000;0.000;2023-07-16T01:37:13;100464.72;;;27.73;36.22
78625;BME280;67944;0.000;0.000;2023-07-16T01:39:39;100469.03;;;27.74;36.46
78625;BME280;67944;0.000;0.000;2023-07-16T01:42:05;100458.31;;;27.74;36.21
78625;BME280;67944;0.000;0.000;2023-07-16T01:44:30;100463.69;;;27.74;36.29
78625;BME280;67944;0.000;0.000;2023-07-16T01:47:08;100471.94;;;27.72;36.42
78625;BME280;67944;0.000;0.000;2023-07-16T01:49:34;100469.25;;;27.72;36.19
78625;BME280;67944;0.000;0.000;2023-07-16T01:52:02;100466.84;;;27.71;36.14
78625;BME280;67944;0.000;0.000;2023-07-16T01:54:28;100461.47;;;27.71;36.49
78625;BME280;67944;0.000;0.000;2023-07-16T01:56:53;100464.38;;;27.69;36.52
78625;BME280;67944;0.000;0.000;2023-07-16T01:59:19;100467.06;;;27.69;36.46
78625;BME280;67944;0.000;0.000;2023-07-16T02:01:44;100468.09;;;27.68;36.32
78625;BME280;67944;0.000;0.000;2023-07-16T02:04:10;100468.91;;;27.69;36.02
78625;BME280;67944;0.000;0.000;2023-07-16T02:06:35;100462.75;;;27.68;36.59
78625;BME280;67944;0.000;0.000;2023-07-16T02:09:01;100472.63;;;27.68;36.16
78625;BME280;67944;0.000;0.000;2023-07-16T02:11:26;100474.50;;;27.67;36.48
78625;BME280;67944;0.000;0.000;2023-07-16T02:13:51;100474.50;;;27.67;36.43
78625;BME280;67944;0.000;0.000;2023-07-16T02:16:17;100478.44;;;27.64;36.22
78625;BME280;67944;0.000;0.000;2023-07-16T02:18:42;100488.09;;;27.66;36.25
78625;BME280;67944;0.000;0.000;2023-07-16T02:21:08;100489.13;;;27.64;36.71
78625;BME280;67944;0.000;0.000;2023-07-16T02:23:33;100495.53;;;27.63;36.24
78625;BME280;67944;0.000;0.000;2023-07-16T02:25:58;100502.75;;;27.63;36.48
78625;BME280;67944;0.000;0.000;2023-07-16T02:28:24;100503.78;;;27.62;36.34
78625;BME280;67944;0.000;0.000;2023-07-16T02:30:49;100508.31;;;27.61;36.42
78625;BME280;67944;0.000;0.000;2023-07-16T02:33:16;100520.88;;;27.61;36.56
78625;BME280;67944;0.000;0.000;2023-07-16T02:35:48;100509.34;;;27.60;36.43
78625;BME280;67944;0.000;0.000;2023-07-16T02:38:14;100519.25;;;27.60;36.49
78625;BME280;67944;0.000;0.000;2023-07-16T02:40:44;100515.75;;;27.59;36.58
78625;BME280;67944;0.000;0.000;2023-07-16T02:43:09;100516.78;;;27.58;36.59
78625;BME280;67944;0.000;0.000;2023-07-16T02:45:35;100522.13;;;27.58;36.74
78625;BME280;67944;0.000;0.000;2023-07-16T02:48:00;100515.16;;;27.57;36.49
78625;BME280;67944;0.000;0.000;2023-07-16T02:50:26;100528.72;;;27.56;36.75
78625;BME280;67944;0.000;0.000;2023-07-16T02:52:51;100529.53;;;27.56;36.45
78625;BME280;67944;0.000;0.000;2023-07-16T02:55:17;100542.09;;;27.56;36.50
78625;BME280;67944;0.000;0.000;2023-07-16T02:57:42;100523.59;;;27.54;36.75
78625;BME280;67944;0.000;0.000;2023-07-16T03:00:08;100530.81;;;27.54;36.89
78625;BME280;67944;0.000;0.000;2023-07-16T03:02:34;100538.00;;;27.53;36.49
78625;BME280;67944;0.000;0.000;2023-07-16T03:04:59;100535.34;;;27.53;36.30
78625;BME280;67944;0.000;0.000;2023-07-16T03:07:25;100535.56;;;27.52;36.61
78625;BME280;67944;0.000;0.000;2023-07-16T03:09:50;100538.22;;;27.52;36.36
78625;BME280;67944;0.000;0.000;2023-07-16T03:12:16;100545.44;;;27.51;36.63
78625;BME280;67944;0.000;0.000;2023-07-16T03:14:41;100546.47;;;27.50;36.99
78625;BME280;67944;0.000;0.000;2023-07-16T03:17:07;100548.34;;;27.50;36.65
78625;BME280;67944;0.000;0.000;2023-07-16T03:19:32;100551.81;;;27.50;36.69
78625;BME280;67944;0.000;0.000;2023-07-16T03:21:58;100553.69;;;27.50;36.56
78625;BME280;67944;0.000;0.000;2023-07-16T03:24:23;100560.09;;;27.49;36.72
78625;BME280;67944;0.000;0.000;2023-07-16T03:26:49;100569.16;;;27.48;36.76
78625;BME280;67944;0.000;0.000;2023-07-16T03:29:14;100574.53;;;27.48;36.56
78625;BME280;67944;0.000;0.000;2023-07-16T03:31:40;100576.59;;;27.46;36.80
78625;BME280;67944;0.000;0.000;2023-07-16T03:34:05;100581.94;;;27.46;36.52
78625;BME280;67944;0.000;0.000;2023-07-16T03:36:31;100587.31;;;27.46;36.76
78625;BME280;67944;0.000;0.000;2023-07-16T03:38:56;100587.31;;;27.46;36.45
78625;BME280;67944;0.000;0.000;2023-07-16T03:41:22;100584.84;;;27.44;36.94
78625;BME280;67944;0.000;0.000;2023-07-16T03:43:47;100584.03;;;27.44;36.63
78625;BME280;67944;0.000;0.000;2023-07-16T03:46:12;100584.03;;;27.44;37.00
78625;BME280;67944;0.000;0.000;2023-07-16T03:48:38;100590.41;;;27.43;36.52
78625;BME280;67944;0.000;0.000;2023-07-16T03:51:03;100588.56;;;27.43;36.63
78625;BME280;67944;0.000;0.000;2023-07-16T03:53:29;100587.75;;;27.43;37.08
78625;BME280;67944;0.000;0.000;2023-07-16T03:55:54;100586.91;;;27.42;37.07
78625;BME280;67944;0.000;0.000;2023-07-16T03:58:20;100588.78;;;27.42;36.86
78625;BME280;67944;0.000;0.000;2023-07-16T04:00:45;100585.28;;;27.41;36.51
78625;BME280;67944;0.000;0.000;2023-07-16T04:03:11;100592.72;;;27.39;36.86
78625;BME280;67944;0.000;0.000;2023-07-16T04:05:36;100596.22;;;27.40;36.92
78625;BME280;67944;0.000;0.000;2023-07-16T04:08:02;100595.38;;;27.39;36.71
78625;BME280;67944;0.000;0.000;2023-07-16T04:10:28;100592.13;;;27.37;36.95
78625;BME280;67944;0.000;0.000;2023-07-16T04:12:53;100601.78;;;27.38;36.89
78625;BME280;67944;0.000;0.000;2023-07-16T04:15:19;100602.81;;;27.37;36.88
78625;BME280;67944;0.000;0.000;2023-07-16T04:17:44;100605.50;;;27.37;37.08
78625;BME280;67944;0.000;0.000;2023-07-16T04:20:10;100611.88;;;27.36;36.99
78625;BME280;67944;0.000;0.000;2023-07-16T04:22:36;100612.91;;;27.35;36.79
78625;BME280;67944;0.000;0.000;2023-07-16T04:25:02;100620.94;;;27.35;37.24
78625;BME280;67944;0.000;0.000;2023-07-16T04:27:27;100622.78;;;27.35;36.99
78625;BME280;67944;0.000;0.000;2023-07-16T04:29:53;100620.34;;;27.33;37.18
78625;BME280;67944;0.000;0.000;2023-07-16T04:32:18;100617.66;;;27.33;36.92
78625;BME280;67944;0.000;0.000;2023-07-16T04:34:44;100629.41;;;27.32;37.01
78625;BME280;67944;0.000;0.000;2023-07-16T04:37:09;100638.25;;;27.33;36.90
78625;BME280;67944;0.000;0.000;2023-07-16T04:39:35;100643.00;;;27.30;37.25
78625;BME280;67944;0.000;0.000;2023-07-16T04:42:00;100641.13;;;27.31;36.74
78625;BME280;67944;0.000;0.000;2023-07-16T04:44:25;100639.50;;;27.30;37.27
78625;BME280;67944;0.000;0.000;2023-07-16T04:46:51;100641.59;;;27.28;36.80
78625;BME280;67944;0.000;0.000;2023-07-16T04:49:16;100645.31;;;27.27;36.77
78625;BME280;67944;0.000;0.000;2023-07-16T04:51:42;100649.84;;;27.26;37.01
78625;BME280;67944;0.000;0.000;2023-07-16T04:54:07;100645.75;;;27.24;37.38
78625;BME280;67944;0.000;0.000;2023-07-16T04:56:32;100649.47;;;27.23;37.26
78625;BME280;67944;0.000;0.000;2023-07-16T04:58:58;100655.03;;;27.21;37.25
78625;BME280;67944;0.000;0.000;2023-07-16T05:01:23;100651.53;;;27.21;37.32
78625;BME280;67944;0.000;0.000;2023-07-16T05:03:50;100658.72;;;27.20;37.01
78625;BME280;67944;0.000;0.000;2023-07-16T05:06:15;100658.72;;;27.20;36.98
78625;BME280;67944;0.000;0.000;2023-07-16T05:08:41;100670.25;;;27.21;37.24
78625;BME280;67944;0.000;0.000;2023-07-16T05:11:06;100669.44;;;27.20;36.98
78625;BME280;67944;0.000;0.000;2023-07-16T05:13:32;100675.81;;;27.19;37.36
78625;BME280;67944;0.000;0.000;2023-07-16T05:15:57;100673.13;;;27.19;37.06
78625;BME280;67944;0.000;0.000;2023-07-16T05:18:23;100678.50;;;27.19;36.97
78625;BME280;67944;0.000;0.000;2023-07-16T05:20:48;100686.50;;;27.19;36.98
78625;BME280;67944;0.000;0.000;2023-07-16T05:23:14;100683.84;;;27.19;37.50
78625;BME280;67944;0.000;0.000;2023-07-16T05:25:48;100691.03;;;27.19;37.28
78625;BME280;67944;0.000;0.000;2023-07-16T05:28:18;100687.53;;;27.18;37.10
78625;BME280;67944;0.000;0.000;2023-07-16T05:30:44;100697.44;;;27.18;36.93
78625;BME280;67944;0.000;0.000;2023-07-16T05:33:10;100696.81;;;27.16;36.76
78625;BME280;67944;0.000;0.000;2023-07-16T05:35:36;100692.50;;;27.15;37.53
78625;BME280;67944;0.000;0.000;2023-07-16T05:38:01;100704.84;;;27.16;37.40
78625;BME280;67944;0.000;0.000;2023-07-16T05:40:27;100701.56;;;27.14;36.91
78625;BME280;67944;0.000;0.000;2023-07-16T05:42:52;100700.75;;;27.13;36.72
78625;BME280;67944;0.000;0.000;2023-07-16T05:45:18;100707.94;;;27.13;37.36
78625;BME280;67944;0.000;0.000;2023-07-16T05:47:43;100704.44;;;27.12;37.31
78625;BME280;67944;0.000;0.000;2023-07-16T05:50:09;100702.59;;;27.13;36.97
78625;BME280;67944;0.000;0.000;2023-07-16T05:52:34;100699.91;;;27.13;37.36
78625;BME280;67944;0.000;0.000;2023-07-16T05:54:59;100704.44;;;27.12;37.54
78625;BME280;67944;0.000;0.000;2023-07-16T05:57:25;100702.81;;;27.11;37.61
78625;BME280;67944;0.000;0.000;2023-07-16T05:59:50;100707.34;;;27.11;37.40
78625;BME280;67944;0.000;0.000;2023-07-16T06:02:16;100702.00;;;27.11;37.26
78625;BME280;67944;0.000;0.000;2023-07-16T06:04:41;100708.16;;;27.11;37.78
78625;BME280;67944;0.000;0.000;2023-07-16T06:07:07;100699.31;;;27.11;37.24
78625;BME280;67944;0.000;0.000;2023-07-16T06:09:33;100699.31;;;27.11;36.93
78625;BME280;67944;0.000;0.000;2023-07-16T06:11:58;100710.00;;;27.11;37.26
78625;BME280;67944;0.000;0.000;2023-07-16T06:14:24;100707.56;;;27.09;37.42
78625;BME280;67944;0.000;0.000;2023-07-16T06:16:49;100720.91;;;27.09;37.19
78625;BME280;67944;0.000;0.000;2023-07-16T06:19:15;100719.88;;;27.10;37.35
78625;BME280;67944;0.000;0.000;2023-07-16T06:21:40;100723.59;;;27.09;37.40
78625;BME280;67944;0.000;0.000;2023-07-16T06:24:06;100720.91;;;27.09;37.67
78625;BME280;67944;0.000;0.000;2023-07-16T06:26:31;100723.59;;;27.09;37.34
78625;BME280;67944;0.000;0.000;2023-07-16T06:28:57;100739.63;;;27.09;37.06
78625;BME280;67944;0.000;0.000;2023-07-16T06:31:22;100734.28;;;27.09;37.45
78625;BME280;67944;0.000;0.000;2023-07-16T06:33:47;100737.78;;;27.10;37.22
78625;BME280;67944;0.000;0.000;2023-07-16T06:36:15;100745.81;;;27.10;37.03
78625;BME280;67944;0.000;0.000;2023-07-16T06:38:40;100734.28;;;27.09;37.72
78625;BME280;67944;0.000;0.000;2023-07-16T06:41:07;100738.59;;;27.10;37.48
78625;BME280;67944;0.000;0.000;2023-07-16T06:43:32;100740.47;;;27.10;37.33
78625;BME280;67944;0.000;0.000;2023-07-16T06:45:57;100740.47;;;27.10;37.29
78625;BME280;67944;0.000;0.000;2023-07-16T06:48:23;100737.78;;;27.10;37.11
78625;BME280;67944;0.000;0.000;2023-07-16T06:50:51;100740.47;;;27.10;37.23
78625;BME280;67944;0.000;0.000;2023-07-16T06:53:17;100743.75;;;27.12;37.69
78625;BME280;67944;0.000;0.000;2023-07-16T06:55:42;100742.09;;;27.11;37.11
78625;BME280;67944;0.000;0.000;2023-07-16T06:58:13;100741.06;;;27.12;37.32
78625;BME280;67944;0.000;0.000;2023-07-16T07:00:38;100739.22;;;27.12;37.40
78625;BME280;67944;0.000;0.000;2023-07-16T07:03:04;100748.06;;;27.13;37.03
78625;BME280;67944;0.000;0.000;2023-07-16T07:05:29;100742.72;;;27.13;37.51
78625;BME280;67944;0.000;0.000;2023-07-16T07:07:55;100746.19;;;27.13;37.25
78625;BME280;67944;0.000;0.000;2023-07-16T07:10:20;100744.34;;;27.14;37.33
78625;BME280;67944;0.000;0.000;2023-07-16T07:12:46;100737.97;;;27.15;37.21
78625;BME280;67944;0.000;0.000;2023-07-16T07:15:11;100747.63;;;27.16;37.60
78625;BME280;67944;0.000;0.000;2023-07-16T07:17:36;100743.91;;;27.17;37.31
78625;BME280;67944;0.000;0.000;2023-07-16T07:20:02;100742.88;;;27.18;37.27
78625;BME280;67944;0.000;0.000;2023-07-16T07:22:28;100747.19;;;27.19;37.33
78625;BME280;67944;0.000;0.000;2023-07-16T07:24:54;100742.66;;;27.19;37.04
78625;BME280;67944;0.000;0.000;2023-07-16T07:27:19;100748.84;;;27.20;37.07
78625;BME280;67944;0.000;0.000;2023-07-16T07:29:44;100747.78;;;27.21;37.18
78625;BME280;67944;0.000;0.000;2023-07-16T07:32:11;100744.09;;;27.22;36.91
78625;BME280;67944;0.000;0.000;2023-07-16T07:34:38;100751.06;;;27.23;37.06
78625;BME280;67944;0.000;0.000;2023-07-16T07:37:04;100755.41;;;27.24;36.96
78625;BME280;67944;0.000;0.000;2023-07-16T07:39:29;100743.88;;;27.23;36.91
78625;BME280;67944;0.000;0.000;2023-07-16T07:41:55;100746.34;;;27.25;37.31
78625;BME280;67944;0.000;0.000;2023-07-16T07:44:20;100747.16;;;27.25;36.94
78625;BME280;67944;0.000;0.000;2023-07-16T07:46:46;100755.78;;;27.27;36.80
78625;BME280;67944;0.000;0.000;2023-07-16T07:49:12;100752.88;;;27.29;36.93
78625;BME280;67944;0.000;0.000;2023-07-16T07:51:37;100751.81;;;27.30;36.84
78625;BME280;67944;0.000;0.000;2023-07-16T07:54:03;100753.25;;;27.33;36.92
78625;BME280;67944;0.000;0.000;2023-07-16T07:56:29;100750.34;;;27.34;37.23
78625;BME280;67944;0.000;0.000;2023-07-16T07:58:55;100756.31;;;27.36;37.23
78625;BME280;67944;0.000;0.000;2023-07-16T08:01:21;100754.25;;;27.38;37.00
78625;BME280;67944;0.000;0.000;2023-07-16T08:03:46;100755.88;;;27.39;36.78
78625;BME280;67944;0.000;0.000;2023-07-16T08:06:12;100751.13;;;27.41;37.54
78625;BME280;67944;0.000;0.000;2023-07-16T08:08:38;100757.09;;;27.43;36.93
78625;BME280;67944;0.000;0.000;2023-07-16T08:11:03;100747.22;;;27.44;36.57
78625;BME280;67944;0.000;0.000;2023-07-16T08:13:28;100761.19;;;27.46;36.77
78625;BME280;67944;0.000;0.000;2023-07-16T08:15:54;100752.94;;;27.47;36.74
78625;BME280;67944;0.000;0.000;2023-07-16T08:18:19;100762.38;;;27.50;37.03
78625;BME280;67944;0.000;0.000;2023-07-16T08:20:46;100748.78;;;27.51;36.38
78625;BME280;67944;0.000;0.000;2023-07-16T08:23:12;100757.19;;;27.55;36.54
78625;BME280;67944;0.000;0.000;2023-07-16T08:25:37;100763.34;;;27.55;36.76
78625;BME280;67944;0.000;0.000;2023-07-16T08:28:03;100749.56;;;27.58;36.33
78625;BME280;67944;0.000;0.000;2023-07-16T08:30:29;100749.34;;;27.60;36.76
78625;BME280;67944;0.000;0.000;2023-07-16T08:32:54;100755.31;;;27.62;36.50
78625;BME280;67944;0.000;0.000;2023-07-16T08:35:19;100751.38;;;27.64;36.61
78625;BME280;67944;0.000;0.000;2023-07-16T08:37:45;100747.88;;;27.64;36.74
78625;BME280;67944;0.000;0.000;2023-07-16T08:40:12;100762.69;;;27.67;36.72
78625;BME280;67944;0.000;0.000;2023-07-16T08:42:39;100757.09;;;27.68;36.49
78625;BME280;67944;0.000;0.000;2023-07-16T08:45:10;100752.56;;;27.69;36.51
78625;BME280;67944;0.000;0.000;2023-07-16T08:47:35;100757.47;;;27.72;36.10
78625;BME280;67944;0.000;0.000;2023-07-16T08:50:01;100761.78;;;27.73;36.27
78625;BME280;67944;0.000;0.000;2023-07-16T08:52:27;100762.38;;;27.75;36.20
78625;BME280;67944;0.000;0.000;2023-07-16T08:54:53;100756.00;;;27.76;36.41
78625;BME280;67944;0.000;0.000;2023-07-16T08:57:20;100762.97;;;27.77;36.23
78625;BME280;67944;0.000;0.000;2023-07-16T08:59:48;100760.91;;;27.79;35.85
78625;BME280;67944;0.000;0.000;2023-07-16T09:02:17;100765.22;;;27.80;36.20
78625;BME280;67944;0.000;0.000;2023-07-16T09:04:44;100760.69;;;27.80;36.34
78625;BME280;67944;0.000;0.000;2023-07-16T09:07:11;100755.94;;;27.82;36.12
78625;BME280;67944;0.000;0.000;2023-07-16T09:09:37;100754.69;;;27.85;36.07
78625;BME280;67944;0.000;0.000;2023-07-16T09:12:02;100762.72;;;27.85;35.99
78625;BME280;67944;0.000;0.000;2023-07-16T09:14:28;100765.97;;;27.87;36.02
78625;BME280;67944;0.000;0.000;2023-07-16T09:16:53;100755.88;;;27.89;36.29
78625;BME280;67944;0.000;0.000;2023-07-16T09:19:20;100758.34;;;27.90;35.97
78625;BME280;67944;0.000;0.000;2023-07-16T09:21:49;100765.09;;;27.93;35.90
78625;BME280;67944;0.000;0.000;2023-07-16T09:24:16;100760.31;;;27.95;36.12
78625;BME280;67944;0.000;0.000;2023-07-16T09:26:49;100761.13;;;27.95;35.69
78625;BME280;67944;0.000;0.000;2023-07-16T09:29:15;100761.75;;;27.97;35.82
78625;BME280;67944;0.000;0.000;2023-07-16T09:31:54;100752.44;;;28.00;35.71
78625;BME280;67944;0.000;0.000;2023-07-16T09:34:20;100754.09;;;28.01;35.87
78625;BME280;67944;0.000;0.000;2023-07-16T09:36:50;100752.22;;;28.02;35.66
78625;BME280;67944;0.000;0.000;2023-07-16T09:39:17;100757.16;;;28.05;35.84
78625;BME280;67944;0.000;0.000;2023-07-16T09:41:45;100748.06;;;28.06;35.44
78625;BME280;67944;0.000;0.000;2023-07-16T09:44:13;100754.84;;;28.08;35.70
78625;BME280;67944;0.000;0.000;2023-07-16T09:46:39;100757.31;;;28.10;35.50
78625;BME280;67944;0.000;0.000;2023-07-16T09:49:06;100763.25;;;28.12;35.84
78625;BME280;67944;0.000;0.000;2023-07-16T09:51:31;100757.69;;;28.13;35.61
78625;BME280;67944;0.000;0.000;2023-07-16T09:54:01;100770.81;;;28.15;35.64
78625;BME280;67944;0.000;0.000;2023-07-16T09:56:39;100753.50;;;28.17;35.38
78625;BME280;67944;0.000;0.000;2023-07-16T09:59:09;100763.16;;;28.18;35.30
78625;BME280;67944;0.000;0.000;2023-07-16T10:01:37;100764.81;;;28.19;35.37
78625;BME280;67944;0.000;0.000;2023-07-16T10:04:14;100758.22;;;28.22;35.23
78625;BME280;67944;0.000;0.000;2023-07-16T10:06:54;100746.25;;;28.24;35.48
78625;BME280;67944;0.000;0.000;2023-07-16T10:12:07;100758.16;;;28.28;35.04
78625;BME280;67944;0.000;0.000;2023-07-16T10:14:39;100746.16;;;28.31;35.22
78625;BME280;67944;0.000;0.000;2023-07-16T10:17:05;100747.00;;;28.31;35.15
78625;BME280;67944;0.000;0.000;2023-07-16T10:19:31;100754.56;;;28.35;35.21
78625;BME280;67944;0.000;0.000;2023-07-16T10:21:56;100749.78;;;28.37;35.14
78625;BME280;67944;0.000;0.000;2023-07-16T10:24:27;100750.38;;;28.39;35.38
78625;BME280;67944;0.000;0.000;2023-07-16T10:26:52;100741.09;;;28.41;35.03
78625;BME280;67944;0.000;0.000;2023-07-16T10:29:18;100744.34;;;28.43;35.23
78625;BME280;67944;0.000;0.000;2023-07-16T10:31:46;100759.38;;;28.44;35.07
78625;BME280;67944;0.000;0.000;2023-07-16T10:34:12;100735.06;;;28.46;34.90
78625;BME280;67944;0.000;0.000;2023-07-16T10:36:38;100739.13;;;28.48;34.95
78625;BME280;67944;0.000;0.000;2023-07-16T10:39:04;100737.88;;;28.51;35.06
78625;BME280;67944;0.000;0.000;2023-07-16T10:41:33;100728.78;;;28.52;34.81
78625;BME280;67944;0.000;0.000;2023-07-16T10:44:00;100736.59;;;28.53;35.01
78625;BME280;67944;0.000;0.000;2023-07-16T10:46:25;100739.88;;;28.55;35.04
78625;BME280;67944;0.000;0.000;2023-07-16T10:48:52;100730.56;;;28.58;34.49
78625;BME280;67944;0.000;0.000;2023-07-16T10:51:17;100743.72;;;28.59;34.55
78625;BME280;67944;0.000;0.000;2023-07-16T10:53:43;100750.72;;;28.60;34.80
78625;BME280;67944;0.000;0.000;2023-07-16T10:56:09;100756.69;;;28.62;34.62
78625;BME280;67944;0.000;0.000;2023-07-16T10:58:37;100755.63;;;28.63;34.52
78625;BME280;67944;0.000;0.000;2023-07-16T11:01:02;100753.78;;;28.64;34.83
78625;BME280;67944;0.000;0.000;2023-07-16T11:03:28;100758.91;;;28.65;34.92
78625;BME280;67944;0.000;0.000;2023-07-16T11:05:53;100748.78;;;28.67;34.14
78625;BME280;67944;0.000;0.000;2023-07-16T11:08:23;100745.06;;;28.69;34.44
78625;BME280;67944;0.000;0.000;2023-07-16T11:10:56;100752.88;;;28.70;34.06
78625;BME280;67944;0.000;0.000;2023-07-16T11:13:27;100750.78;;;28.72;34.15
78625;BME280;67944;0.000;0.000;2023-07-16T11:15:52;100755.69;;;28.75;34.65
78625;BME280;67944;0.000;0.000;2023-07-16T11:18:18;100750.34;;;28.75;34.43
78625;BME280;67944;0.000;0.000;2023-07-16T11:20:43;100746.59;;;28.76;34.28
78625;BME280;67944;0.000;0.000;2023-07-16T11:23:10;100737.53;;;28.77;34.39
78625;BME280;67944;0.000;0.000;2023-07-16T11:25:36;100735.44;;;28.79;33.81
78625;BME280;67944;0.000;0.000;2023-07-16T11:28:02;100732.53;;;28.81;34.04
78625;BME280;67944;0.000;0.000;2023-07-16T11:30:27;100743.03;;;28.82;34.04
78625;BME280;67944;0.000;0.000;2023-07-16T11:32:54;100741.75;;;28.85;34.70
78625;BME280;67944;0.000;0.000;2023-07-16T11:35:20;100725.44;;;28.86;34.20
78625;BME280;67944;0.000;0.000;2023-07-16T11:37:47;100740.47;;;28.87;34.15
78625;BME280;67944;0.000;0.000;2023-07-16T11:40:19;100740.25;;;28.89;33.85
78625;BME280;67944;0.000;0.000;2023-07-16T11:42:46;100740.03;;;28.90;34.30
78625;BME280;67944;0.000;0.000;2023-07-16T11:45:23;100731.75;;;28.92;34.06
78625;BME280;67944;0.000;0.000;2023-07-16T11:47:52;100743.31;;;28.92;34.11
78625;BME280;67944;0.000;0.000;2023-07-16T11:50:17;100736.91;;;28.93;34.04
78625;BME280;67944;0.000;0.000;2023-07-16T11:52:43;100733.16;;;28.94;33.98
78625;BME280;67944;0.000;0.000;2023-07-16T11:55:16;100726.75;;;28.95;34.06
78625;BME280;67944;0.000;0.000;2023-07-16T11:57:42;100724.91;;;28.96;33.72
78625;BME280;67944;0.000;0.000;2023-07-16T12:00:07;100720.94;;;28.98;33.74
78625;BME280;67944;0.000;0.000;2023-07-16T12:02:33;100732.50;;;28.99;33.86
78625;BME280;67944;0.000;0.000;2023-07-16T12:04:58;100716.19;;;29.01;33.53
78625;BME280;67944;0.000;0.000;2023-07-16T12:07:37;100726.63;;;29.02;33.29
78625;BME280;67944;0.000;0.000;2023-07-16T12:10:04;100729.91;;;29.04;33.45
78625;BME280;67944;0.000;0.000;2023-07-16T12:12:30;100713.00;;;29.04;33.56
78625;BME280;67944;0.000;0.000;2023-07-16T12:14:56;100720.00;;;29.05;33.61
78625;BME280;67944;0.000;0.000;2023-07-16T12:17:21;100717.09;;;29.06;33.54
78625;BME280;67944;0.000;0.000;2023-07-16T12:19:47;100709.28;;;29.05;33.32
78625;BME280;67944;0.000;0.000;2023-07-16T12:22:16;100719.78;;;29.06;33.39
78625;BME280;67944;0.000;0.000;2023-07-16T12:24:42;100723.28;;;29.07;33.09
78625;BME280;67944;0.000;0.000;2023-07-16T12:27:08;100721.41;;;29.07;33.35
78625;BME280;67944;0.000;0.000;2023-07-16T12:29:33;100703.47;;;29.08;33.66
78625;BME280;67944;0.000;0.000;2023-07-16T12:31:59;100701.38;;;29.10;33.05
78625;BME280;67944;0.000;0.000;2023-07-16T12:34:25;100705.69;;;29.11;32.94
78625;BME280;67944;0.000;0.000;2023-07-16T12:36:50;100701.94;;;29.12;32.99
78625;BME280;67944;0.000;0.000;2023-07-16T12:39:16;100700.91;;;29.13;33.36
78625;BME280;67944;0.000;0.000;2023-07-16T12:41:43;100701.72;;;29.13;33.18
78625;BME280;67944;0.000;0.000;2023-07-16T12:44:08;100706.03;;;29.14;33.23
78625;BME280;67944;0.000;0.000;2023-07-16T12:46:34;100687.03;;;29.16;32.97
78625;BME280;67944;0.000;0.000;2023-07-16T12:48:59;100702.09;;;29.17;32.88
78625;BME280;67944;0.000;0.000;2023-07-16T12:51:25;100698.34;;;29.18;33.13
78625;BME280;67944;0.000;0.000;2023-07-16T12:53:50;100689.25;;;29.19;32.78
78625;BME280;67944;0.000;0.000;2023-07-16T12:56:15;100692.31;;;29.22;32.69
78625;BME280;67944;0.000;0.000;2023-07-16T12:58:41;100692.31;;;29.22;32.74
78625;BME280;67944;0.000;0.000;2023-07-16T13:01:06;100688.53;;;29.23;32.64
78625;BME280;67944;0.000;0.000;2023-07-16T13:03:33;100697.41;;;29.24;32.98